Flight Briefing for CPX328

Departure Arrival
Los Angeles International Airport (KLAX)
Click to view FAA NOTAMS
Kansas City International Airport (KMCI)
Click to view FAA NOTAMS
Departure Time Arrival Time
N/A N/A
Aircraft Distance
B767-300BDSF 1184nm
Departure METAR Arrival METAR
KLAX 151953Z 24010KT 9SM FEW031 BKN070 BKN160 15/08 A3013 RMK AO2 SLP202 T01500083 KMCI 152048Z 36008KT 1 1/2SM -SN SCT035 OVC050 M10/M13 A3005 RMK AO2 SFC VIS 2 P0002
Suggested Route
ORCKA3 LAS J146 DVC GCK J28 ICT EMP JHAWK6


View recent IFR Routes data
Notes
METROAIR CARGO SUPPORT

Charts and Procedures

Charts for KLAX
No chart available
Charts for KMCI
No chart available

Ventusky Weather